Time;durP1;ratioP1;P1;durP2;ratioP2;P2;SDS_P1;SDS_P2;PMS_P1;PMS_P2;Temp;Humidity;BMP_temperature;BMP_pressure;BME280_temperature;BME280_humidity;BME280_pressure;Samples;Min_cycle;Max_cycle;Signal;HPM_P1;HPM_P2
2021/12/30 00:01:04;;;;;;;0.20;0.20;;;10.90;99.90;;;;;;5018164;28;20034;-81
2021/12/30 00:03:30;;;;;;;1.10;0.20;;;11.00;99.90;;;;;;5007741;28;20419;-81
2021/12/30 00:05:56;;;;;;;0.13;0.10;;;11.00;99.90;;;;;;5002240;28;20045;-81
2021/12/30 00:08:22;;;;;;;0.20;0.20;;;11.00;99.90;;;;;;4998864;28;20030;-81
2021/12/30 00:10:48;;;;;;;0.55;0.32;;;11.00;99.90;;;;;;4981306;28;20022;-80
2021/12/30 00:13:14;;;;;;;0.95;0.10;;;11.00;99.90;;;;;;5011325;28;20505;-81
2021/12/30 00:15:40;;;;;;;0.88;0.30;;;11.00;99.90;;;;;;5019531;28;20203;-81
2021/12/30 00:18:09;;;;;;;0.30;0.30;;;11.00;99.90;;;;;;5016919;28;20068;-80
2021/12/30 00:20:36;;;;;;;0.20;0.20;;;11.00;99.90;;;;;;5019487;28;20022;-81
2021/12/30 00:23:04;;;;;;;0.20;0.20;;;11.00;99.90;;;;;;5020544;28;20033;-81
2021/12/30 00:25:37;;;;;;;0.17;0.17;;;11.10;99.90;;;;;;5019711;28;20022;-82
2021/12/30 00:28:17;;;;;;;0.38;0.20;;;11.10;99.90;;;;;;5021510;28;20077;-81
2021/12/30 00:30:44;;;;;;;0.22;0.10;;;11.20;99.90;;;;;;5026730;28;20097;-81
2021/12/30 00:33:10;;;;;;;0.20;0.10;;;11.30;99.90;;;;;;5020014;28;20490;-81
2021/12/30 00:35:36;;;;;;;0.20;0.20;;;11.20;99.90;;;;;;4998277;28;20065;-81
2021/12/30 00:38:03;;;;;;;0.45;0.10;;;11.20;99.90;;;;;;4998210;28;20053;-81
2021/12/30 00:40:30;;;;;;;0.55;0.10;;;11.20;99.90;;;;;;4998774;28;20077;-81
2021/12/30 00:42:55;;;;;;;0.38;0.30;;;11.30;99.90;;;;;;5009062;28;20026;-80
2021/12/30 00:45:22;;;;;;;0.60;0.10;;;11.20;99.90;;;;;;5022579;28;20035;-82
2021/12/30 00:47:47;;;;;;;0.22;0.10;;;11.20;99.90;;;;;;5017078;28;20030;-81
2021/12/30 00:50:13;;;;;;;0.00;0.00;;;11.20;99.90;;;;;;5017615;28;20105;-81
2021/12/30 00:52:39;;;;;;;0.20;0.20;;;11.20;99.90;;;;;;5021935;28;20030;-81
2021/12/30 00:55:06;;;;;;;1.23;0.30;;;11.30;99.90;;;;;;5026663;28;20058;-82
2021/12/30 00:57:31;;;;;;;0.30;0.10;;;11.30;99.90;;;;;;5024961;28;20052;-82
2021/12/30 00:59:57;;;;;;;0.08;0.08;;;11.20;99.90;;;;;;5022773;28;20054;-82
2021/12/30 01:02:23;;;;;;;0.30;0.10;;;11.20;99.90;;;;;;5033766;28;20022;-81
2021/12/30 01:04:49;;;;;;;0.17;0.10;;;11.30;99.90;;;;;;5037318;28;20030;-81
2021/12/30 01:07:14;;;;;;;0.13;0.10;;;11.30;99.90;;;;;;5037455;28;20025;-81
2021/12/30 01:09:40;;;;;;;0.10;0.00;;;11.30;99.90;;;;;;5025290;28;20030;-82
2021/12/30 01:12:06;;;;;;;0.60;0.10;;;11.20;99.90;;;;;;5023784;28;20128;-81
2021/12/30 01:14:35;;;;;;;0.40;0.20;;;11.30;99.90;;;;;;5040680;28;20018;-81
2021/12/30 01:17:14;;;;;;;0.10;0.10;;;11.30;99.90;;;;;;5018640;28;20061;-81
2021/12/30 01:22:06;;;;;;;0.17;0.17;;;11.20;99.90;;;;;;5025538;28;20140;-82
2021/12/30 01:24:31;;;;;;;0.20;0.20;;;11.20;99.90;;;;;;5021770;28;20040;-81
2021/12/30 01:26:57;;;;;;;0.10;0.10;;;11.20;99.90;;;;;;5031890;28;20026;-81
2021/12/30 01:29:24;;;;;;;0.10;0.10;;;11.10;99.90;;;;;;5032971;28;20022;-81
2021/12/30 01:31:50;;;;;;;0.08;0.08;;;11.20;99.90;;;;;;5023905;28;20022;-81
2021/12/30 01:34:16;;;;;;;0.10;0.10;;;11.10;99.90;;;;;;5012927;28;20049;-81
2021/12/30 01:36:42;;;;;;;0.20;0.20;;;11.20;99.90;;;;;;5023317;28;20032;-81
2021/12/30 01:39:07;;;;;;;0.32;0.17;;;11.30;99.90;;;;;;5021073;28;20026;-80
2021/12/30 01:41:33;;;;;;;0.10;0.10;;;11.30;99.90;;;;;;5020643;28;20056;-82
2021/12/30 01:43:59;;;;;;;0.10;0.10;;;11.30;99.90;;;;;;5020803;28;20030;-81
2021/12/30 01:46:25;;;;;;;0.17;0.10;;;11.20;99.90;;;;;;5022094;28;20072;-81
2021/12/30 01:48:50;;;;;;;0.38;0.10;;;11.20;99.90;;;;;;5020458;28;20033;-81
2021/12/30 01:51:16;;;;;;;0.10;0.10;;;11.20;99.90;;;;;;5020249;28;20478;-81
2021/12/30 01:53:42;;;;;;;0.10;0.10;;;11.20;99.90;;;;;;5019958;28;20065;-81
2021/12/30 01:56:08;;;;;;;0.20;0.20;;;11.20;99.90;;;;;;5019940;28;20494;-81
2021/12/30 01:58:36;;;;;;;0.10;0.08;;;11.10;99.90;;;;;;5003279;28;20116;-81
2021/12/30 02:01:02;;;;;;;0.47;0.10;;;11.10;99.90;;;;;;5020682;28;20486;-81
2021/12/30 02:03:28;;;;;;;0.00;0.00;;;11.20;99.90;;;;;;5020127;28;20036;-81
2021/12/30 02:05:54;;;;;;;0.08;0.08;;;11.20;99.90;;;;;;5005101;28;20054;-81
2021/12/30 02:08:20;;;;;;;0.08;0.08;;;11.30;99.90;;;;;;4982129;28;20094;-82
2021/12/30 02:10:48;;;;;;;0.10;0.10;;;11.30;99.90;;;;;;5000545;28;20300;-81
2021/12/30 02:13:15;;;;;;;0.20;0.20;;;11.30;99.90;;;;;;4984544;28;20073;-82
2021/12/30 02:15:42;;;;;;;0.10;0.10;;;11.40;99.90;;;;;;5002741;28;20030;-81
2021/12/30 02:18:07;;;;;;;0.05;0.05;;;11.40;99.90;;;;;;5025945;28;20093;-80
2021/12/30 02:20:43;;;;;;;0.03;0.03;;;11.40;99.90;;;;;;5038963;28;20022;-80
2021/12/30 02:23:09;;;;;;;0.10;0.10;;;11.40;99.90;;;;;;5024069;28;20037;-80
2021/12/30 02:25:35;;;;;;;0.10;0.10;;;11.40;99.90;;;;;;5020324;28;20026;-81
2021/12/30 02:28:08;;;;;;;0.20;0.15;;;11.30;99.90;;;;;;5018900;28;20077;-81
2021/12/30 02:30:34;;;;;;;0.00;0.00;;;11.30;99.90;;;;;;5017848;28;20160;-82
2021/12/30 02:33:00;;;;;;;0.10;0.10;;;11.20;99.90;;;;;;5010858;28;20676;-81
2021/12/30 02:35:26;;;;;;;0.20;0.10;;;11.20;99.90;;;;;;5007867;28;20372;-82
2021/12/30 02:37:52;;;;;;;0.15;0.10;;;11.20;99.90;;;;;;5008419;28;20026;-81
2021/12/30 02:40:28;;;;;;;0.10;0.10;;;11.10;99.90;;;;;;5018959;28;20057;-81
2021/12/30 02:42:55;;;;;;;0.10;0.10;;;11.10;99.90;;;;;;5017727;28;20034;-81
2021/12/30 02:45:20;;;;;;;0.10;0.10;;;11.10;99.90;;;;;;5019595;28;20121;-81
2021/12/30 02:47:47;;;;;;;0.45;0.20;;;11.10;99.90;;;;;;5019088;28;20057;-81
2021/12/30 02:50:12;;;;;;;0.28;0.10;;;11.10;99.90;;;;;;5019162;28;20033;-81
2021/12/30 02:52:38;;;;;;;0.17;0.17;;;11.30;99.90;;;;;;5019235;28;20026;-81
2021/12/30 02:55:04;;;;;;;0.47;0.10;;;11.30;99.90;;;;;;5002262;28;20103;-81
2021/12/30 02:57:30;;;;;;;0.10;0.10;;;11.40;99.90;;;;;;5018575;28;20081;-83
2021/12/30 02:59:55;;;;;;;0.03;0.00;;;11.40;99.90;;;;;;5018928;28;20557;-81
2021/12/30 03:02:21;;;;;;;0.35;0.28;;;11.50;99.90;;;;;;5019978;28;20026;-81
2021/12/30 03:04:47;;;;;;;0.20;0.20;;;11.50;99.90;;;;;;5008694;28;20413;-81
2021/12/30 03:07:17;;;;;;;0.32;0.32;;;11.60;99.90;;;;;;5009596;28;20018;-81
2021/12/30 03:09:44;;;;;;;0.10;0.10;;;11.60;99.90;;;;;;5020281;28;20081;-81
2021/12/30 03:12:10;;;;;;;1.08;0.20;;;11.60;99.90;;;;;;5020366;28;20340;-81
2021/12/30 03:14:40;;;;;;;0.10;0.10;;;11.70;99.90;;;;;;5019140;28;20068;-81
2021/12/30 03:17:06;;;;;;;0.15;0.15;;;11.70;99.90;;;;;;5018008;28;20029;-81
2021/12/30 03:19:32;;;;;;;0.17;0.17;;;11.60;99.90;;;;;;5018471;28;20026;-81
2021/12/30 03:21:58;;;;;;;0.10;0.10;;;11.60;99.90;;;;;;5020135;28;20494;-81
2021/12/30 03:24:24;;;;;;;1.23;0.20;;;11.50;99.90;;;;;;5025870;28;20017;-81
2021/12/30 03:26:50;;;;;;;0.10;0.10;;;11.30;99.90;;;;;;5032140;28;20094;-81
2021/12/30 03:29:15;;;;;;;0.10;0.10;;;11.20;99.90;;;;;;5030620;28;20094;-81
2021/12/30 03:31:43;;;;;;;0.03;0.03;;;11.20;99.90;;;;;;5048384;22;20165;-83
2021/12/30 03:34:25;;;;;;;0.20;0.20;;;11.20;99.90;;;;;;5054886;28;20361;-83
2021/12/30 03:39:54;;;;;;;0.43;0.10;;;11.10;99.90;;;;;;5056581;28;20036;-83
2021/12/30 03:42:28;;;;;;;0.10;0.10;;;11.10;99.90;;;;;;5035782;28;20392;-84
2021/12/30 03:45:52;;;;;;;0.10;0.10;;;11.10;99.90;;;;;;5039705;28;20036;-85
2021/12/30 03:48:43;;;;;;;0.10;0.10;;;11.00;99.90;;;;;;4983512;28;20136;-84
2021/12/30 03:51:37;;;;;;;0.10;0.10;;;11.00;99.90;;;;;;4963612;28;20039;-84
2021/12/30 03:54:18;;;;;;;;;;;;;;;;;;;;;
2021/12/30 03:57:12;;;;;;;0.90;0.10;;;11.00;99.90;;;;;;5034040;28;20032;-84
2021/12/30 03:59:38;;;;;;;0.13;0.10;;;11.00;99.90;;;;;;5011224;28;20029;-83
2021/12/30 04:02:07;;;;;;;0.10;0.10;;;11.00;99.90;;;;;;5039290;28;20024;-84
2021/12/30 04:04:36;;;;;;;0.10;0.10;;;11.00;99.90;;;;;;5050243;28;20026;-83
2021/12/30 04:07:02;;;;;;;0.20;0.20;;;10.90;99.90;;;;;;5018644;28;20062;-83
2021/12/30 04:10:01;;;;;;;0.10;0.10;;;10.90;99.90;;;;;;5036809;28;20031;-83
2021/12/30 04:12:27;;;;;;;1.08;0.40;;;10.90;99.90;;;;;;5015306;28;20510;-84
2021/12/30 04:15:48;;;;;;;0.40;0.40;;;10.90;99.90;;;;;;5033790;28;20049;-84
2021/12/30 04:18:14;;;;;;;1.45;0.43;;;10.90;99.90;;;;;;5011680;28;20069;-84
2021/12/30 04:20:59;;;;;;;;;;;;;;;;;;;;;
2021/12/30 04:23:43;;;;;;;0.20;0.20;;;10.80;99.90;;;;;;5057062;28;20089;-83
2021/12/30 04:26:50;;;;;;;0.20;0.20;;;10.80;99.90;;;;;;5057456;28;20075;-83
2021/12/30 04:29:27;;;;;;;1.73;0.20;;;10.80;99.90;;;;;;5048242;28;20028;-83
2021/12/30 04:31:59;;;;;;;0.30;0.20;;;10.80;99.90;;;;;;5052629;28;20043;-83
2021/12/30 04:35:01;;;;;;;0.28;0.22;;;10.80;99.90;;;;;;5067920;28;20013;-83
2021/12/30 04:37:27;;;;;;;0.28;0.20;;;10.80;99.90;;;;;;5063886;28;20082;-83
2021/12/30 04:39:53;;;;;;;0.77;0.50;;;10.80;99.90;;;;;;5044034;28;20067;-83
2021/12/30 04:42:19;;;;;;;0.20;0.20;;;10.80;99.90;;;;;;5043117;28;20025;-83
2021/12/30 04:44:48;;;;;;;0.68;0.55;;;10.80;99.90;;;;;;5042404;28;20021;-83
2021/12/30 04:47:15;;;;;;;0.35;0.25;;;10.70;99.90;;;;;;5060177;28;20383;-83
2021/12/30 04:49:49;;;;;;;1.10;0.20;;;10.70;99.90;;;;;;5043000;28;20486;-83
2021/12/30 04:52:31;;;;;;;0.30;0.10;;;10.80;99.90;;;;;;5041338;28;20036;-83
2021/12/30 04:54:58;;;;;;;1.55;0.30;;;10.80;99.90;;;;;;5041508;28;20091;-83
2021/12/30 04:57:27;;;;;;;0.28;0.20;;;10.80;99.90;;;;;;5042789;28;20105;-83
2021/12/30 04:59:52;;;;;;;1.00;0.40;;;10.70;99.90;;;;;;5040857;28;20139;-83
2021/12/30 05:02:28;;;;;;;0.20;0.20;;;10.70;99.90;;;;;;5042381;28;20020;-83
2021/12/30 05:04:54;;;;;;;0.30;0.30;;;10.70;99.90;;;;;;5058914;28;20025;-83
2021/12/30 05:07:27;;;;;;;0.28;0.28;;;10.80;99.90;;;;;;5061229;28;20320;-84
2021/12/30 05:09:53;;;;;;;0.22;0.22;;;10.80;99.90;;;;;;5043176;28;20044;-83
2021/12/30 05:12:19;;;;;;;0.25;0.22;;;10.80;99.90;;;;;;5044906;23;20041;-83
2021/12/30 05:14:44;;;;;;;1.25;0.20;;;10.80;99.90;;;;;;5038365;28;20022;-83
2021/12/30 05:17:18;;;;;;;1.48;0.28;;;10.80;99.90;;;;;;5049254;28;20037;-82
2021/12/30 05:19:43;;;;;;;0.43;0.30;;;10.80;99.90;;;;;;5042385;28;20025;-83
2021/12/30 05:22:09;;;;;;;0.43;0.20;;;10.80;99.90;;;;;;5034749;28;20025;-83
2021/12/30 05:24:45;;;;;;;;;;;;;;;;;;;;;
2021/12/30 05:27:11;;;;;;;0.57;0.30;;;10.80;99.90;;;;;;5027147;28;20130;-81
2021/12/30 05:29:37;;;;;;;0.32;0.32;;;10.80;99.90;;;;;;5024723;28;20049;-82
2021/12/30 05:32:03;;;;;;;0.20;0.20;;;10.80;99.90;;;;;;5023187;28;20049;-82
2021/12/30 05:34:28;;;;;;;1.17;0.30;;;10.80;99.90;;;;;;5023495;28;20056;-83
2021/12/30 05:36:54;;;;;;;0.22;0.20;;;10.80;99.90;;;;;;5023924;28;20026;-83
2021/12/30 05:39:20;;;;;;;0.30;0.30;;;10.80;99.90;;;;;;5025755;28;20033;-82
2021/12/30 05:41:46;;;;;;;0.17;0.17;;;10.80;99.90;;;;;;5022513;28;20026;-82
2021/12/30 05:44:11;;;;;;;0.47;0.30;;;10.80;99.90;;;;;;5016607;28;20113;-82
2021/12/30 05:46:37;;;;;;;2.53;0.30;;;10.80;99.90;;;;;;5020664;28;20032;-83
2021/12/30 05:49:03;;;;;;;0.30;0.30;;;10.90;99.90;;;;;;5021503;28;20033;-82
2021/12/30 05:51:29;;;;;;;0.20;0.10;;;10.90;99.90;;;;;;5024661;28;20018;-83
2021/12/30 05:53:55;;;;;;;0.45;0.30;;;10.90;99.90;;;;;;5024063;28;20044;-83
2021/12/30 05:56:21;;;;;;;0.30;0.30;;;10.90;99.90;;;;;;5026991;28;20420;-83
2021/12/30 05:58:46;;;;;;;0.77;0.50;;;10.90;99.90;;;;;;5025005;28;20022;-82
2021/12/30 06:01:12;;;;;;;0.73;0.40;;;11.00;99.90;;;;;;5017141;28;20045;-82
2021/12/30 06:03:38;;;;;;;0.52;0.30;;;11.00;99.90;;;;;;5012804;28;20093;-82
2021/12/30 06:06:04;;;;;;;1.65;0.55;;;10.90;99.90;;;;;;5012521;28;20025;-83
2021/12/30 06:08:29;;;;;;;0.75;0.35;;;10.90;99.90;;;;;;5017664;28;20053;-83
2021/12/30 06:10:55;;;;;;;0.28;0.28;;;11.00;99.90;;;;;;5020110;28;20022;-82
2021/12/30 06:13:21;;;;;;;1.55;0.40;;;11.00;99.90;;;;;;5020130;28;20033;-83
2021/12/30 06:15:46;;;;;;;1.77;0.40;;;11.00;99.90;;;;;;5019255;28;20101;-82
2021/12/30 06:18:12;;;;;;;0.40;0.35;;;11.10;99.90;;;;;;5018793;28;20030;-81
2021/12/30 06:20:38;;;;;;;0.77;0.15;;;11.10;99.90;;;;;;5030149;28;20021;-81
2021/12/30 06:23:04;;;;;;;0.95;0.40;;;11.10;99.90;;;;;;5033393;28;20029;-81
2021/12/30 06:25:30;;;;;;;0.30;0.30;;;11.20;99.90;;;;;;5035026;28;20076;-81
2021/12/30 06:27:55;;;;;;;0.50;0.50;;;11.20;99.90;;;;;;5034635;28;20089;-81
2021/12/30 06:30:21;;;;;;;2.10;0.90;;;11.20;99.90;;;;;;5036357;28;20041;-81
2021/12/30 06:32:47;;;;;;;0.55;0.55;;;11.20;99.90;;;;;;5018235;28;20030;-81
2021/12/30 06:35:13;;;;;;;0.60;0.40;;;11.20;99.90;;;;;;4999056;28;20398;-81
2021/12/30 06:37:40;;;;;;;1.13;0.82;;;11.20;99.90;;;;;;4995748;28;20050;-81
2021/12/30 06:40:08;;;;;;;1.45;0.80;;;11.20;99.90;;;;;;4996764;28;20117;-81
2021/12/30 06:42:34;;;;;;;0.55;0.55;;;11.10;99.90;;;;;;4997442;28;20110;-81
2021/12/30 06:45:00;;;;;;;0.47;0.47;;;11.10;99.90;;;;;;5002105;28;20022;-82
2021/12/30 06:47:26;;;;;;;0.43;0.35;;;11.10;99.90;;;;;;5017500;28;20439;-81
2021/12/30 06:49:58;;;;;;;0.75;0.40;;;11.10;99.90;;;;;;5020294;28;20025;-81
2021/12/30 06:52:24;;;;;;;1.27;1.17;;;11.20;99.90;;;;;;5022589;28;20090;-83
2021/12/30 06:54:49;;;;;;;1.33;1.23;;;11.10;99.90;;;;;;5023580;28;20025;-80
2021/12/30 06:57:15;;;;;;;0.90;0.80;;;11.10;99.90;;;;;;5020367;28;20535;-80
2021/12/30 06:59:41;;;;;;;0.43;0.43;;;11.10;99.90;;;;;;5016364;28;20033;-80
2021/12/30 07:02:07;;;;;;;0.30;0.30;;;11.10;99.90;;;;;;5016309;28;20090;-83
2021/12/30 07:04:33;;;;;;;0.25;0.25;;;11.10;99.90;;;;;;5013362;28;20022;-82
2021/12/30 07:06:59;;;;;;;0.60;0.60;;;11.20;99.90;;;;;;5019660;28;20045;-82
2021/12/30 07:09:25;;;;;;;0.50;0.40;;;11.20;99.90;;;;;;5021018;28;20041;-82
2021/12/30 07:11:52;;;;;;;0.32;0.32;;;11.20;99.90;;;;;;5021847;28;20038;-83
2021/12/30 07:14:19;;;;;;;0.30;0.30;;;11.20;99.90;;;;;;5019861;28;20030;-82
2021/12/30 07:16:45;;;;;;;0.38;0.38;;;11.20;99.90;;;;;;5018121;28;20026;-83
2021/12/30 07:19:12;;;;;;;0.70;0.45;;;11.20;99.90;;;;;;5017990;28;20478;-83
2021/12/30 07:21:38;;;;;;;2.28;0.77;;;11.20;99.90;;;;;;5017545;28;20034;-82
2021/12/30 07:24:04;;;;;;;0.30;0.30;;;11.20;99.90;;;;;;5007367;28;20026;-82
2021/12/30 07:26:29;;;;;;;0.30;0.20;;;11.20;99.90;;;;;;5010026;28;20040;-82
2021/12/30 07:28:55;;;;;;;0.38;0.38;;;11.20;99.90;;;;;;5019508;28;20022;-83
2021/12/30 07:31:21;;;;;;;0.63;0.40;;;11.20;99.90;;;;;;5020452;28;20101;-82
2021/12/30 07:33:47;;;;;;;0.40;0.22;;;11.30;99.90;;;;;;5002237;28;20026;-83
2021/12/30 07:36:12;;;;;;;0.30;0.30;;;11.30;99.90;;;;;;5015701;28;20030;-83
2021/12/30 07:38:38;;;;;;;0.50;0.50;;;11.30;99.90;;;;;;4999780;28;20030;-82
2021/12/30 07:41:04;;;;;;;0.60;0.52;;;11.30;99.90;;;;;;5008224;28;20041;-81
2021/12/30 07:43:31;;;;;;;1.15;0.40;;;11.30;99.90;;;;;;5013959;28;20076;-83
2021/12/30 07:45:57;;;;;;;0.50;0.40;;;11.40;99.90;;;;;;5021843;28;20030;-82
2021/12/30 07:48:23;;;;;;;0.30;0.30;;;11.40;99.90;;;;;;5021051;28;20029;-82
2021/12/30 07:50:50;;;;;;;1.23;0.40;;;11.30;99.90;;;;;;5021932;28;20367;-83
2021/12/30 07:53:16;;;;;;;4.88;0.50;;;11.40;99.90;;;;;;5020183;28;20030;-82
2021/12/30 07:55:42;;;;;;;0.17;0.17;;;11.40;99.90;;;;;;5018113;28;20040;-83
2021/12/30 07:58:07;;;;;;;0.28;0.28;;;11.40;99.90;;;;;;5020641;28;20046;-81
2021/12/30 08:00:33;;;;;;;2.17;0.50;;;11.40;99.90;;;;;;5013051;28;20037;-80
2021/12/30 08:02:59;;;;;;;1.58;0.20;;;11.40;99.90;;;;;;5028259;28;20038;-79
2021/12/30 08:05:27;;;;;;;0.55;0.40;;;11.50;99.90;;;;;;5015475;28;20018;-82
2021/12/30 08:07:53;;;;;;;0.30;0.30;;;11.50;99.90;;;;;;5005051;28;20018;-82
2021/12/30 08:10:20;;;;;;;0.35;0.32;;;11.50;99.90;;;;;;5022311;28;20434;-80
2021/12/30 08:12:48;;;;;;;0.22;0.22;;;11.50;99.90;;;;;;5020793;28;20056;-83
2021/12/30 08:15:15;;;;;;;0.63;0.40;;;11.50;99.90;;;;;;5012489;28;20018;-81
2021/12/30 08:17:41;;;;;;;0.25;0.25;;;11.50;99.90;;;;;;5009712;28;20074;-81
2021/12/30 08:20:09;;;;;;;0.38;0.30;;;11.50;99.90;;;;;;5019590;28;20104;-82
2021/12/30 08:22:35;;;;;;;0.68;0.52;;;11.50;99.90;;;;;;5021202;28;20034;-82
2021/12/30 08:25:01;;;;;;;0.40;0.40;;;11.60;99.90;;;;;;5022692;28;20017;-81
2021/12/30 08:27:27;;;;;;;0.63;0.45;;;11.60;99.90;;;;;;5022033;28;20056;-84
2021/12/30 08:29:53;;;;;;;2.05;0.88;;;11.60;99.90;;;;;;5021180;28;20030;-81
2021/12/30 08:32:19;;;;;;;0.30;0.30;;;11.60;99.90;;;;;;5019635;28;20495;-82
2021/12/30 08:34:46;;;;;;;0.38;0.38;;;11.70;99.90;;;;;;5018961;28;20172;-83
2021/12/30 08:37:12;;;;;;;0.40;0.22;;;11.70;99.90;;;;;;5015706;28;20026;-81
2021/12/30 08:39:40;;;;;;;1.05;0.40;;;11.70;99.90;;;;;;5022181;28;20014;-80
2021/12/30 08:42:26;;;;;;;0.40;0.40;;;11.80;99.90;;;;;;5013996;28;20101;-81
2021/12/30 08:44:54;;;;;;;1.73;0.50;;;11.80;99.90;;;;;;5007766;28;20034;-84
2021/12/30 08:47:21;;;;;;;2.50;0.40;;;11.90;99.90;;;;;;5018137;28;20025;-83
2021/12/30 08:49:48;;;;;;;2.25;0.60;;;11.90;99.90;;;;;;5024045;28;20030;-82
2021/12/30 08:52:18;;;;;;;0.65;0.30;;;11.90;99.90;;;;;;5019156;28;20022;-81
2021/12/30 08:54:45;;;;;;;0.45;0.30;;;12.00;99.90;;;;;;5014172;28;20173;-81
2021/12/30 08:57:11;;;;;;;0.50;0.50;;;12.00;99.90;;;;;;5009599;28;20041;-82
2021/12/30 08:59:37;;;;;;;0.73;0.70;;;12.00;99.90;;;;;;5008240;28;20026;-82
2021/12/30 09:02:05;;;;;;;0.50;0.35;;;12.00;99.90;;;;;;5022596;28;20030;-81
2021/12/30 09:04:32;;;;;;;0.50;0.40;;;12.00;99.90;;;;;;5022694;28;20450;-81
2021/12/30 09:06:58;;;;;;;0.47;0.40;;;12.10;99.90;;;;;;5011779;28;20019;-82
2021/12/30 09:09:24;;;;;;;0.50;0.50;;;12.10;99.90;;;;;;5006259;28;20090;-83
2021/12/30 09:11:50;;;;;;;1.15;0.30;;;12.20;99.90;;;;;;5024433;28;20030;-82
2021/12/30 09:14:16;;;;;;;0.30;0.30;;;12.20;99.90;;;;;;5031898;28;20037;-83
2021/12/30 09:16:43;;;;;;;0.22;0.17;;;12.30;99.90;;;;;;5030305;28;20030;-84
2021/12/30 09:19:09;;;;;;;1.05;0.40;;;12.30;99.90;;;;;;5025260;28;20026;-84
2021/12/30 09:21:38;;;;;;;0.80;0.55;;;12.40;99.90;;;;;;5020984;28;20044;-84
2021/12/30 09:24:06;;;;;;;2.00;0.50;;;12.40;99.90;;;;;;5018266;28;20018;-84
2021/12/30 09:26:32;;;;;;;0.40;0.40;;;12.40;99.90;;;;;;5021553;28;20082;-84
2021/12/30 09:29:01;;;;;;;0.45;0.30;;;12.40;99.90;;;;;;5019507;28;20022;-84
2021/12/30 09:31:30;;;;;;;0.60;0.40;;;12.30;99.90;;;;;;5020323;28;20121;-86
2021/12/30 09:33:57;;;;;;;2.05;0.60;;;12.30;99.90;;;;;;5014125;28;20023;-84
2021/12/30 09:36:24;;;;;;;0.77;0.57;;;12.30;99.90;;;;;;5021643;28;20378;-84
2021/12/30 09:38:51;;;;;;;0.88;0.40;;;12.30;99.90;;;;;;5019938;28;20030;-80
2021/12/30 09:41:17;;;;;;;2.13;0.50;;;12.30;99.90;;;;;;5022782;28;20101;-81
2021/12/30 09:43:43;;;;;;;1.13;0.52;;;12.30;99.90;;;;;;5021897;28;20021;-79
2021/12/30 09:46:08;;;;;;;0.88;0.40;;;12.30;99.90;;;;;;5021527;28;20030;-80
2021/12/30 09:48:34;;;;;;;0.40;0.32;;;12.30;99.90;;;;;;5021220;28;20109;-82
2021/12/30 09:51:00;;;;;;;0.30;0.20;;;12.30;99.90;;;;;;5019448;28;20026;-81
2021/12/30 09:53:26;;;;;;;0.30;0.30;;;12.40;99.90;;;;;;5021085;28;20033;-80
2021/12/30 09:55:57;;;;;;;0.30;0.22;;;12.40;99.90;;;;;;5023496;28;20025;-80
2021/12/30 09:58:23;;;;;;;0.32;0.30;;;12.50;99.90;;;;;;5019923;28;20025;-80
2021/12/30 10:00:49;;;;;;;0.63;0.30;;;12.50;99.90;;;;;;5019835;28;20029;-80
2021/12/30 10:03:15;;;;;;;0.75;0.50;;;12.50;99.90;;;;;;5020286;28;20026;-80
2021/12/30 10:05:42;;;;;;;0.73;0.40;;;12.60;99.90;;;;;;5011395;28;20029;-80
2021/12/30 10:08:13;;;;;;;0.50;0.40;;;12.60;99.90;;;;;;5018096;28;20030;-80
2021/12/30 10:10:42;;;;;;;1.73;0.53;;;12.60;99.90;;;;;;5018787;28;20369;-80
2021/12/30 10:13:29;;;;;;;1.10;0.90;;;12.60;99.90;;;;;;5019939;28;20025;-80
2021/12/30 10:16:12;;;;;;;0.32;0.30;;;12.60;99.90;;;;;;5018690;28;20025;-80
2021/12/30 10:18:51;;;;;;;1.20;1.10;;;12.70;99.90;;;;;;5020439;28;20022;-80
2021/12/30 10:21:30;;;;;;;0.85;0.77;;;12.70;99.90;;;;;;5020727;28;20077;-80
2021/12/30 10:23:59;;;;;;;0.35;0.30;;;12.80;99.90;;;;;;5019844;28;20029;-80
2021/12/30 10:26:25;;;;;;;0.35;0.30;;;12.90;99.90;;;;;;5019988;28;20029;-81
2021/12/30 10:28:57;;;;;;;1.58;0.52;;;12.90;99.90;;;;;;5023146;28;20022;-80
2021/12/30 10:31:27;;;;;;;0.30;0.30;;;12.90;99.90;;;;;;5021517;28;20543;-81
2021/12/30 10:33:55;;;;;;;0.20;0.20;;;13.00;99.90;;;;;;5017811;28;20499;-81
2021/12/30 10:36:31;;;;;;;0.60;0.50;;;13.20;99.90;;;;;;5016830;28;20030;-81
2021/12/30 10:39:25;;;;;;;1.15;0.50;;;13.30;99.90;;;;;;5019708;28;20099;-81
2021/12/30 10:42:16;;;;;;;1.02;0.43;;;13.40;99.90;;;;;;5019007;28;20026;-81
2021/12/30 10:44:58;;;;;;;0.30;0.30;;;13.50;99.90;;;;;;5022654;28;20087;-80
2021/12/30 10:47:28;;;;;;;0.40;0.40;;;13.60;99.90;;;;;;5022404;28;20030;-80
2021/12/30 10:50:09;;;;;;;0.75;0.65;;;13.80;99.90;;;;;;5020100;28;20022;-80
2021/12/30 10:52:50;;;;;;;0.43;0.43;;;13.90;99.90;;;;;;5022345;28;20090;-80
2021/12/30 10:55:16;;;;;;;1.55;0.68;;;14.10;99.90;;;;;;5021927;28;20061;-80
2021/12/30 10:57:42;;;;;;;0.52;0.52;;;14.30;99.90;;;;;;5002416;28;20034;-80
2021/12/30 11:00:09;;;;;;;0.35;0.35;;;14.30;99.90;;;;;;5001357;28;20057;-80
2021/12/30 11:02:36;;;;;;;0.70;0.70;;;14.30;99.90;;;;;;5011720;28;20041;-81
2021/12/30 11:05:11;;;;;;;1.02;0.40;;;14.40;99.90;;;;;;5019549;28;20033;-80
2021/12/30 11:07:50;;;;;;;0.50;0.43;;;14.40;99.90;;;;;;5022867;28;20033;-81
2021/12/30 11:10:31;;;;;;;0.45;0.32;;;14.50;99.90;;;;;;5019842;28;20022;-81
2021/12/30 11:13:11;;;;;;;0.85;0.50;;;14.50;99.90;;;;;;5024876;28;20387;-81
2021/12/30 11:15:37;;;;;;;0.35;0.35;;;14.50;99.90;;;;;;5009107;28;20033;-80
2021/12/30 11:18:16;;;;;;;0.38;0.30;;;14.50;99.90;;;;;;5002942;28;20026;-80
2021/12/30 11:20:45;;;;;;;0.47;0.47;;;14.40;99.90;;;;;;5004432;28;20030;-81
2021/12/30 11:23:13;;;;;;;1.23;0.60;;;14.40;99.90;;;;;;5003298;28;20048;-82
2021/12/30 11:25:42;;;;;;;0.47;0.40;;;14.30;99.90;;;;;;5019044;28;20033;-83
2021/12/30 11:28:08;;;;;;;1.35;0.63;;;14.30;99.90;;;;;;5022730;28;20070;-82
2021/12/30 11:30:34;;;;;;;0.75;0.55;;;14.20;99.90;;;;;;5025715;28;20018;-82
2021/12/30 11:33:02;;;;;;;0.47;0.40;;;14.30;99.90;;;;;;5023469;28;20036;-81
2021/12/30 11:35:29;;;;;;;0.60;0.60;;;14.40;99.90;;;;;;5034250;28;20021;-80
2021/12/30 11:38:01;;;;;;;0.57;0.47;;;14.40;99.90;;;;;;5032503;28;20041;-80
2021/12/30 11:40:33;;;;;;;2.10;0.40;;;14.40;99.90;;;;;;5034205;28;20022;-80
2021/12/30 11:43:12;;;;;;;0.63;0.63;;;14.40;99.90;;;;;;5032812;28;20459;-80
2021/12/30 11:45:43;;;;;;;0.85;0.70;;;14.50;99.90;;;;;;5031496;28;20030;-79
2021/12/30 11:48:23;;;;;;;1.33;0.85;;;14.40;99.90;;;;;;5030835;28;20022;-81
2021/12/30 11:51:08;;;;;;;0.30;0.30;;;14.40;99.90;;;;;;5030615;28;20105;-81
2021/12/30 11:53:38;;;;;;;0.40;0.40;;;14.40;99.90;;;;;;5031231;28;20036;-81
2021/12/30 11:56:25;;;;;;;1.10;0.63;;;14.40;99.90;;;;;;5031349;28;20053;-82
2021/12/30 11:58:52;;;;;;;0.40;0.40;;;14.40;99.90;;;;;;5028295;28;20029;-81
2021/12/30 12:01:21;;;;;;;0.38;0.38;;;14.40;99.90;;;;;;5028407;28;20026;-81
2021/12/30 12:03:52;;;;;;;2.05;0.70;;;14.50;99.90;;;;;;5027438;28;20018;-80
2021/12/30 12:06:24;;;;;;;1.45;0.30;;;14.60;99.90;;;;;;5018847;28;20086;-81
2021/12/30 12:08:52;;;;;;;0.43;0.43;;;14.60;99.90;;;;;;5027534;28;20065;-82
2021/12/30 12:11:24;;;;;;;0.50;0.30;;;14.60;99.90;;;;;;5029103;28;20129;-82
2021/12/30 12:13:51;;;;;;;1.27;0.80;;;14.50;99.90;;;;;;5024176;28;20036;-81
2021/12/30 12:16:47;;;;;;;1.70;0.73;;;14.50;99.90;;;;;;5029443;28;20033;-82
2021/12/30 12:19:15;;;;;;;1.10;0.50;;;14.50;99.90;;;;;;5027016;28;20033;-80
2021/12/30 12:21:53;;;;;;;0.82;0.63;;;14.50;99.90;;;;;;5028796;28;20458;-80
2021/12/30 12:24:22;;;;;;;0.63;0.55;;;14.50;99.90;;;;;;5027601;28;20057;-82
2021/12/30 12:26:52;;;;;;;0.30;0.30;;;14.40;99.90;;;;;;5027391;28;20041;-81
2021/12/30 12:29:32;;;;;;;0.82;0.57;;;14.50;99.90;;;;;;5019266;28;20010;-81
2021/12/30 12:32:43;;;;;;;1.38;0.50;;;14.40;99.90;;;;;;5008429;28;20022;-80
2021/12/30 12:35:31;;;;;;;1.75;0.50;;;14.40;99.90;;;;;;5012289;28;20121;-80
2021/12/30 12:38:01;;;;;;;0.98;0.57;;;14.30;99.90;;;;;;5021423;28;20054;-81
2021/12/30 12:40:37;;;;;;;1.02;0.73;;;14.30;99.90;;;;;;5034275;28;20016;-81
2021/12/30 12:43:23;;;;;;;2.15;0.90;;;14.30;99.90;;;;;;5034038;28;20053;-81
2021/12/30 12:45:53;;;;;;;1.25;0.63;;;14.40;99.90;;;;;;5030106;28;20037;-79
2021/12/30 12:48:21;;;;;;;0.50;0.50;;;14.40;99.90;;;;;;5028468;28;20025;-79
2021/12/30 12:50:51;;;;;;;1.92;0.60;;;14.40;99.90;;;;;;5034300;28;20036;-79
2021/12/30 12:53:32;;;;;;;0.50;0.50;;;14.50;99.90;;;;;;5034166;28;20029;-81
2021/12/30 12:55:58;;;;;;;0.73;0.60;;;14.60;99.90;;;;;;5034776;28;20350;-81
2021/12/30 12:58:26;;;;;;;0.73;0.57;;;14.50;99.90;;;;;;5033988;28;20014;-80
2021/12/30 13:00:55;;;;;;;0.47;0.40;;;14.50;99.90;;;;;;5033589;28;20045;-81
2021/12/30 13:03:21;;;;;;;1.13;0.60;;;14.50;99.90;;;;;;5030708;28;20032;-81
2021/12/30 13:06:02;;;;;;;0.73;0.70;;;14.40;99.90;;;;;;5016564;28;20023;-81
2021/12/30 13:08:40;;;;;;;0.97;0.40;;;14.40;99.90;;;;;;5009639;28;20090;-79